sensor_id;sensor_type;location;lat;lon;timestamp;P1;durP1;ratioP1;P2;durP2;ratioP2
21107;SDS011;10712;52.944;9.098;2024-02-16T00:00:26;4.60;;;3.58;;
21107;SDS011;10712;52.944;9.098;2024-02-16T00:02:52;4.60;;;3.40;;
21107;SDS011;10712;52.944;9.098;2024-02-16T00:05:18;4.28;;;3.50;;
21107;SDS011;10712;52.944;9.098;2024-02-16T00:07:44;4.65;;;3.25;;
21107;SDS011;10712;52.944;9.098;2024-02-16T00:10:10;3.90;;;3.50;;
21107;SDS011;10712;52.944;9.098;2024-02-16T00:12:37;3.27;;;3.03;;
21107;SDS011;10712;52.944;9.098;2024-02-16T00:15:05;6.10;;;4.25;;
21107;SDS011;10712;52.944;9.098;2024-02-16T00:17:32;3.67;;;3.38;;
21107;SDS011;10712;52.944;9.098;2024-02-16T00:19:58;5.32;;;3.42;;
21107;SDS011;10712;52.944;9.098;2024-02-16T00:22:24;7.18;;;3.70;;
21107;SDS011;10712;52.944;9.098;2024-02-16T00:24:51;7.45;;;3.55;;
21107;SDS011;10712;52.944;9.098;2024-02-16T00:27:17;6.38;;;3.45;;
21107;SDS011;10712;52.944;9.098;2024-02-16T00:29:43;7.13;;;3.70;;
21107;SDS011;10712;52.944;9.098;2024-02-16T00:32:11;4.65;;;3.28;;
21107;SDS011;10712;52.944;9.098;2024-02-16T00:34:37;4.20;;;2.80;;
21107;SDS011;10712;52.944;9.098;2024-02-16T00:37:04;3.70;;;2.95;;
21107;SDS011;10712;52.944;9.098;2024-02-16T00:39:35;3.63;;;3.33;;
21107;SDS011;10712;52.944;9.098;2024-02-16T00:42:02;5.15;;;3.10;;
21107;SDS011;10712;52.944;9.098;2024-02-16T00:44:28;3.67;;;3.28;;
21107;SDS011;10712;52.944;9.098;2024-02-16T00:46:54;4.68;;;3.40;;
21107;SDS011;10712;52.944;9.098;2024-02-16T00:49:20;3.60;;;3.20;;
21107;SDS011;10712;52.944;9.098;2024-02-16T00:51:45;4.63;;;3.15;;
21107;SDS011;10712;52.944;9.098;2024-02-16T00:54:11;5.55;;;3.00;;
21107;SDS011;10712;52.944;9.098;2024-02-16T00:56:37;5.72;;;3.22;;
21107;SDS011;10712;52.944;9.098;2024-02-16T00:59:03;6.20;;;2.92;;
21107;SDS011;10712;52.944;9.098;2024-02-16T01:01:30;3.97;;;3.17;;
21107;SDS011;10712;52.944;9.098;2024-02-16T01:03:56;2.75;;;2.47;;
21107;SDS011;10712;52.944;9.098;2024-02-16T01:06:21;4.50;;;2.53;;
21107;SDS011;10712;52.944;9.098;2024-02-16T01:08:47;2.72;;;2.45;;
21107;SDS011;10712;52.944;9.098;2024-02-16T01:11:13;3.70;;;2.58;;
21107;SDS011;10712;52.944;9.098;2024-02-16T01:13:39;7.38;;;2.83;;
21107;SDS011;10712;52.944;9.098;2024-02-16T01:16:05;2.95;;;2.63;;
21107;SDS011;10712;52.944;9.098;2024-02-16T01:18:32;3.83;;;2.75;;
21107;SDS011;10712;52.944;9.098;2024-02-16T01:20:58;6.32;;;2.95;;
21107;SDS011;10712;52.944;9.098;2024-02-16T01:23:24;3.33;;;2.60;;
21107;SDS011;10712;52.944;9.098;2024-02-16T01:25:50;4.53;;;3.08;;
21107;SDS011;10712;52.944;9.098;2024-02-16T01:28:16;3.53;;;2.65;;
21107;SDS011;10712;52.944;9.098;2024-02-16T01:30:42;3.03;;;2.33;;
21107;SDS011;10712;52.944;9.098;2024-02-16T01:33:08;3.90;;;2.90;;
21107;SDS011;10712;52.944;9.098;2024-02-16T01:35:34;2.65;;;2.45;;
21107;SDS011;10712;52.944;9.098;2024-02-16T01:38:00;5.28;;;2.45;;
21107;SDS011;10712;52.944;9.098;2024-02-16T01:40:27;3.75;;;2.72;;
21107;SDS011;10712;52.944;9.098;2024-02-16T01:42:54;2.40;;;2.20;;
21107;SDS011;10712;52.944;9.098;2024-02-16T01:45:20;2.95;;;2.65;;
21107;SDS011;10712;52.944;9.098;2024-02-16T01:47:47;2.95;;;2.65;;
21107;SDS011;10712;52.944;9.098;2024-02-16T01:50:19;3.17;;;2.40;;
21107;SDS011;10712;52.944;9.098;2024-02-16T01:52:45;3.13;;;2.33;;
21107;SDS011;10712;52.944;9.098;2024-02-16T01:55:13;2.20;;;2.00;;
21107;SDS011;10712;52.944;9.098;2024-02-16T01:57:44;3.20;;;2.60;;
21107;SDS011;10712;52.944;9.098;2024-02-16T02:00:13;2.88;;;2.05;;
21107;SDS011;10712;52.944;9.098;2024-02-16T02:02:44;2.63;;;2.22;;
21107;SDS011;10712;52.944;9.098;2024-02-16T02:05:11;4.00;;;2.72;;
21107;SDS011;10712;52.944;9.098;2024-02-16T02:07:39;2.13;;;1.92;;
21107;SDS011;10712;52.944;9.098;2024-02-16T02:10:04;2.85;;;2.20;;
21107;SDS011;10712;52.944;9.098;2024-02-16T02:12:31;3.50;;;2.25;;
21107;SDS011;10712;52.944;9.098;2024-02-16T02:14:56;3.47;;;1.90;;
21107;SDS011;10712;52.944;9.098;2024-02-16T02:17:22;5.45;;;2.65;;
21107;SDS011;10712;52.944;9.098;2024-02-16T02:19:48;3.97;;;2.38;;
21107;SDS011;10712;52.944;9.098;2024-02-16T02:22:15;3.88;;;2.38;;
21107;SDS011;10712;52.944;9.098;2024-02-16T02:24:43;2.70;;;2.42;;
21107;SDS011;10712;52.944;9.098;2024-02-16T02:27:13;5.38;;;2.55;;
21107;SDS011;10712;52.944;9.098;2024-02-16T02:29:41;3.88;;;2.60;;
21107;SDS011;10712;52.944;9.098;2024-02-16T02:32:07;3.17;;;2.60;;
21107;SDS011;10712;52.944;9.098;2024-02-16T02:34:33;3.67;;;2.05;;
21107;SDS011;10712;52.944;9.098;2024-02-16T02:37:01;3.45;;;2.22;;
21107;SDS011;10712;52.944;9.098;2024-02-16T02:39:29;4.28;;;2.17;;
21107;SDS011;10712;52.944;9.098;2024-02-16T02:41:56;2.40;;;2.20;;
21107;SDS011;10712;52.944;9.098;2024-02-16T02:44:23;3.28;;;2.35;;
21107;SDS011;10712;52.944;9.098;2024-02-16T02:46:50;4.30;;;2.72;;
21107;SDS011;10712;52.944;9.098;2024-02-16T02:49:17;2.78;;;2.25;;
21107;SDS011;10712;52.944;9.098;2024-02-16T02:51:43;4.60;;;2.17;;
21107;SDS011;10712;52.944;9.098;2024-02-16T02:54:09;1.85;;;1.67;;
21107;SDS011;10712;52.944;9.098;2024-02-16T02:56:35;2.72;;;2.38;;
21107;SDS011;10712;52.944;9.098;2024-02-16T02:59:01;3.97;;;2.10;;
21107;SDS011;10712;52.944;9.098;2024-02-16T03:01:26;4.68;;;2.40;;
21107;SDS011;10712;52.944;9.098;2024-02-16T03:03:52;2.58;;;2.38;;
21107;SDS011;10712;52.944;9.098;2024-02-16T03:06:18;2.17;;;1.80;;
21107;SDS011;10712;52.944;9.098;2024-02-16T03:08:45;2.80;;;2.28;;
21107;SDS011;10712;52.944;9.098;2024-02-16T03:11:11;1.67;;;1.50;;
21107;SDS011;10712;52.944;9.098;2024-02-16T03:13:37;3.00;;;2.08;;
21107;SDS011;10712;52.944;9.098;2024-02-16T03:16:03;3.92;;;2.17;;
21107;SDS011;10712;52.944;9.098;2024-02-16T03:18:29;3.30;;;2.17;;
21107;SDS011;10712;52.944;9.098;2024-02-16T03:20:56;4.85;;;2.28;;
21107;SDS011;10712;52.944;9.098;2024-02-16T03:23:23;5.88;;;1.80;;
21107;SDS011;10712;52.944;9.098;2024-02-16T03:25:49;4.97;;;2.53;;
21107;SDS011;10712;52.944;9.098;2024-02-16T03:28:15;3.53;;;2.17;;
21107;SDS011;10712;52.944;9.098;2024-02-16T03:30:41;3.60;;;2.40;;
21107;SDS011;10712;52.944;9.098;2024-02-16T03:33:09;4.68;;;2.40;;
21107;SDS011;10712;52.944;9.098;2024-02-16T03:35:35;2.65;;;1.98;;
21107;SDS011;10712;52.944;9.098;2024-02-16T03:38:02;2.70;;;2.10;;
21107;SDS011;10712;52.944;9.098;2024-02-16T03:40:29;2.60;;;2.22;;
21107;SDS011;10712;52.944;9.098;2024-02-16T03:42:55;4.38;;;2.55;;
21107;SDS011;10712;52.944;9.098;2024-02-16T03:45:20;8.55;;;2.53;;
21107;SDS011;10712;52.944;9.098;2024-02-16T03:47:47;2.88;;;2.08;;
21107;SDS011;10712;52.944;9.098;2024-02-16T03:50:19;2.45;;;1.95;;
21107;SDS011;10712;52.944;9.098;2024-02-16T03:52:45;2.72;;;2.25;;
21107;SDS011;10712;52.944;9.098;2024-02-16T03:55:11;3.05;;;2.40;;
21107;SDS011;10712;52.944;9.098;2024-02-16T03:57:37;3.55;;;2.42;;
21107;SDS011;10712;52.944;9.098;2024-02-16T04:00:05;2.80;;;2.60;;
21107;SDS011;10712;52.944;9.098;2024-02-16T04:02:37;4.65;;;2.40;;
21107;SDS011;10712;52.944;9.098;2024-02-16T04:05:05;3.33;;;2.03;;
21107;SDS011;10712;52.944;9.098;2024-02-16T04:07:32;3.42;;;2.65;;
21107;SDS011;10712;52.944;9.098;2024-02-16T04:09:59;4.75;;;2.30;;
21107;SDS011;10712;52.944;9.098;2024-02-16T04:12:25;3.92;;;2.08;;
21107;SDS011;10712;52.944;9.098;2024-02-16T04:14:51;2.08;;;1.88;;
21107;SDS011;10712;52.944;9.098;2024-02-16T04:17:17;3.13;;;1.85;;
21107;SDS011;10712;52.944;9.098;2024-02-16T04:19:42;5.22;;;1.90;;
21107;SDS011;10712;52.944;9.098;2024-02-16T04:22:08;2.55;;;1.90;;
21107;SDS011;10712;52.944;9.098;2024-02-16T04:24:35;3.35;;;2.22;;
21107;SDS011;10712;52.944;9.098;2024-02-16T04:27:00;3.67;;;1.65;;
21107;SDS011;10712;52.944;9.098;2024-02-16T04:29:26;2.72;;;1.90;;
21107;SDS011;10712;52.944;9.098;2024-02-16T04:31:52;1.85;;;1.75;;
21107;SDS011;10712;52.944;9.098;2024-02-16T04:34:18;4.38;;;2.40;;
21107;SDS011;10712;52.944;9.098;2024-02-16T04:36:43;3.38;;;2.15;;
21107;SDS011;10712;52.944;9.098;2024-02-16T04:39:10;3.10;;;2.38;;
21107;SDS011;10712;52.944;9.098;2024-02-16T04:41:37;2.97;;;1.80;;
21107;SDS011;10712;52.944;9.098;2024-02-16T04:44:03;5.13;;;1.92;;
21107;SDS011;10712;52.944;9.098;2024-02-16T04:46:29;2.75;;;2.47;;
21107;SDS011;10712;52.944;9.098;2024-02-16T04:48:55;2.88;;;2.20;;
21107;SDS011;10712;52.944;9.098;2024-02-16T04:51:20;2.17;;;1.73;;
21107;SDS011;10712;52.944;9.098;2024-02-16T04:53:46;4.30;;;2.20;;
21107;SDS011;10712;52.944;9.098;2024-02-16T04:56:13;2.65;;;2.15;;
21107;SDS011;10712;52.944;9.098;2024-02-16T04:58:42;2.40;;;2.20;;
21107;SDS011;10712;52.944;9.098;2024-02-16T05:01:08;5.03;;;2.40;;
21107;SDS011;10712;52.944;9.098;2024-02-16T05:03:34;7.80;;;2.22;;
21107;SDS011;10712;52.944;9.098;2024-02-16T05:06:00;2.33;;;1.90;;
21107;SDS011;10712;52.944;9.098;2024-02-16T05:08:26;3.80;;;2.55;;
21107;SDS011;10712;52.944;9.098;2024-02-16T05:10:51;2.47;;;1.83;;
21107;SDS011;10712;52.944;9.098;2024-02-16T05:13:17;2.67;;;1.90;;
21107;SDS011;10712;52.944;9.098;2024-02-16T05:15:43;2.53;;;1.88;;
21107;SDS011;10712;52.944;9.098;2024-02-16T05:18:09;6.03;;;2.28;;
21107;SDS011;10712;52.944;9.098;2024-02-16T05:20:37;2.47;;;1.67;;
21107;SDS011;10712;52.944;9.098;2024-02-16T05:23:03;3.05;;;1.65;;
21107;SDS011;10712;52.944;9.098;2024-02-16T05:25:29;2.63;;;1.75;;
21107;SDS011;10712;52.944;9.098;2024-02-16T05:27:55;2.10;;;1.90;;
21107;SDS011;10712;52.944;9.098;2024-02-16T05:30:21;3.20;;;1.95;;
21107;SDS011;10712;52.944;9.098;2024-02-16T05:32:46;2.10;;;1.92;;
21107;SDS011;10712;52.944;9.098;2024-02-16T05:35:14;1.85;;;1.60;;
21107;SDS011;10712;52.944;9.098;2024-02-16T05:37:42;3.10;;;1.88;;
21107;SDS011;10712;52.944;9.098;2024-02-16T05:40:16;3.28;;;1.80;;
21107;SDS011;10712;52.944;9.098;2024-02-16T05:42:55;2.90;;;1.58;;
21107;SDS011;10712;52.944;9.098;2024-02-16T05:45:25;5.15;;;2.28;;
21107;SDS011;10712;52.944;9.098;2024-02-16T05:47:51;2.58;;;1.80;;
21107;SDS011;10712;52.944;9.098;2024-02-16T05:50:17;2.47;;;1.90;;
21107;SDS011;10712;52.944;9.098;2024-02-16T05:52:46;3.67;;;2.05;;
21107;SDS011;10712;52.944;9.098;2024-02-16T05:55:12;5.25;;;1.95;;
21107;SDS011;10712;52.944;9.098;2024-02-16T05:57:38;3.20;;;1.90;;
21107;SDS011;10712;52.944;9.098;2024-02-16T06:00:05;2.58;;;1.65;;
21107;SDS011;10712;52.944;9.098;2024-02-16T06:02:33;5.05;;;1.73;;
21107;SDS011;10712;52.944;9.098;2024-02-16T06:05:00;3.20;;;1.48;;
21107;SDS011;10712;52.944;9.098;2024-02-16T06:07:28;2.17;;;1.73;;
21107;SDS011;10712;52.944;9.098;2024-02-16T06:09:55;5.13;;;1.80;;
21107;SDS011;10712;52.944;9.098;2024-02-16T06:12:22;6.88;;;2.40;;
21107;SDS011;10712;52.944;9.098;2024-02-16T06:14:48;3.25;;;1.95;;
21107;SDS011;10712;52.944;9.098;2024-02-16T06:17:15;2.15;;;1.80;;
21107;SDS011;10712;52.944;9.098;2024-02-16T06:19:41;2.28;;;1.48;;
21107;SDS011;10712;52.944;9.098;2024-02-16T06:22:08;3.60;;;1.58;;
21107;SDS011;10712;52.944;9.098;2024-02-16T06:24:35;1.60;;;1.50;;
21107;SDS011;10712;52.944;9.098;2024-02-16T06:27:01;3.85;;;1.60;;
21107;SDS011;10712;52.944;9.098;2024-02-16T06:29:28;2.05;;;1.85;;
21107;SDS011;10712;52.944;9.098;2024-02-16T06:31:55;2.78;;;1.73;;
21107;SDS011;10712;52.944;9.098;2024-02-16T06:34:21;1.50;;;1.40;;
21107;SDS011;10712;52.944;9.098;2024-02-16T06:36:48;1.50;;;1.40;;
21107;SDS011;10712;52.944;9.098;2024-02-16T06:39:15;3.75;;;1.70;;
21107;SDS011;10712;52.944;9.098;2024-02-16T06:41:43;1.70;;;1.60;;
21107;SDS011;10712;52.944;9.098;2024-02-16T06:44:11;2.03;;;1.83;;
21107;SDS011;10712;52.944;9.098;2024-02-16T06:46:38;7.20;;;2.42;;
21107;SDS011;10712;52.944;9.098;2024-02-16T06:49:04;2.60;;;2.17;;
21107;SDS011;10712;52.944;9.098;2024-02-16T06:51:30;2.88;;;1.88;;
21107;SDS011;10712;52.944;9.098;2024-02-16T06:53:56;4.85;;;1.80;;
21107;SDS011;10712;52.944;9.098;2024-02-16T06:56:22;4.97;;;1.98;;
21107;SDS011;10712;52.944;9.098;2024-02-16T06:58:49;2.55;;;1.70;;
21107;SDS011;10712;52.944;9.098;2024-02-16T07:01:15;4.32;;;2.35;;
21107;SDS011;10712;52.944;9.098;2024-02-16T07:03:43;4.35;;;2.47;;
21107;SDS011;10712;52.944;9.098;2024-02-16T07:06:10;1.75;;;1.60;;
21107;SDS011;10712;52.944;9.098;2024-02-16T07:08:41;3.65;;;1.90;;
21107;SDS011;10712;52.944;9.098;2024-02-16T07:11:08;2.97;;;2.10;;
21107;SDS011;10712;52.944;9.098;2024-02-16T07:13:37;2.53;;;1.83;;
21107;SDS011;10712;52.944;9.098;2024-02-16T07:16:05;3.42;;;2.10;;
21107;SDS011;10712;52.944;9.098;2024-02-16T07:18:32;3.50;;;1.63;;
21107;SDS011;10712;52.944;9.098;2024-02-16T07:20:59;3.22;;;2.30;;
21107;SDS011;10712;52.944;9.098;2024-02-16T07:23:25;2.65;;;1.75;;
21107;SDS011;10712;52.944;9.098;2024-02-16T07:25:51;3.70;;;2.53;;
21107;SDS011;10712;52.944;9.098;2024-02-16T07:28:21;2.53;;;2.20;;
21107;SDS011;10712;52.944;9.098;2024-02-16T07:30:51;6.28;;;2.97;;
21107;SDS011;10712;52.944;9.098;2024-02-16T07:33:18;10.40;;;7.07;;
21107;SDS011;10712;52.944;9.098;2024-02-16T07:35:44;11.32;;;7.72;;
21107;SDS011;10712;52.944;9.098;2024-02-16T07:38:10;7.22;;;6.22;;
21107;SDS011;10712;52.944;9.098;2024-02-16T07:40:36;7.63;;;4.43;;
21107;SDS011;10712;52.944;9.098;2024-02-16T07:43:02;7.15;;;4.15;;
21107;SDS011;10712;52.944;9.098;2024-02-16T07:45:28;5.90;;;3.90;;
21107;SDS011;10712;52.944;9.098;2024-02-16T07:47:55;5.88;;;3.47;;
21107;SDS011;10712;52.944;9.098;2024-02-16T07:50:22;4.90;;;3.22;;
21107;SDS011;10712;52.944;9.098;2024-02-16T07:52:49;6.25;;;2.40;;
21107;SDS011;10712;52.944;9.098;2024-02-16T07:55:16;4.55;;;2.00;;
21107;SDS011;10712;52.944;9.098;2024-02-16T07:57:45;4.47;;;1.98;;
21107;SDS011;10712;52.944;9.098;2024-02-16T08:00:12;4.38;;;2.10;;
21107;SDS011;10712;52.944;9.098;2024-02-16T08:02:40;4.63;;;2.38;;
21107;SDS011;10712;52.944;9.098;2024-02-16T08:05:08;2.65;;;2.17;;
21107;SDS011;10712;52.944;9.098;2024-02-16T08:07:41;3.08;;;1.92;;
21107;SDS011;10712;52.944;9.098;2024-02-16T08:10:10;2.70;;;1.50;;
21107;SDS011;10712;52.944;9.098;2024-02-16T08:12:36;4.72;;;1.90;;
21107;SDS011;10712;52.944;9.098;2024-02-16T08:15:03;2.72;;;1.90;;
21107;SDS011;10712;52.944;9.098;2024-02-16T08:17:34;6.93;;;2.20;;
21107;SDS011;10712;52.944;9.098;2024-02-16T08:20:01;2.13;;;1.77;;
21107;SDS011;10712;52.944;9.098;2024-02-16T08:22:27;3.08;;;1.80;;
21107;SDS011;10712;52.944;9.098;2024-02-16T08:24:53;3.50;;;2.22;;
21107;SDS011;10712;52.944;9.098;2024-02-16T08:27:19;11.73;;;7.38;;
21107;SDS011;10712;52.944;9.098;2024-02-16T08:29:45;17.58;;;12.90;;
21107;SDS011;10712;52.944;9.098;2024-02-16T08:32:11;11.82;;;9.25;;
21107;SDS011;10712;52.944;9.098;2024-02-16T08:34:37;8.50;;;6.60;;
21107;SDS011;10712;52.944;9.098;2024-02-16T08:37:04;8.00;;;4.65;;
21107;SDS011;10712;52.944;9.098;2024-02-16T08:39:31;4.55;;;2.92;;
21107;SDS011;10712;52.944;9.098;2024-02-16T08:41:59;4.00;;;2.42;;
21107;SDS011;10712;52.944;9.098;2024-02-16T08:44:26;4.85;;;2.38;;
21107;SDS011;10712;52.944;9.098;2024-02-16T08:46:52;10.07;;;7.95;;
21107;SDS011;10712;52.944;9.098;2024-02-16T08:49:19;21.77;;;16.25;;
21107;SDS011;10712;52.944;9.098;2024-02-16T08:51:45;6.63;;;4.93;;
21107;SDS011;10712;52.944;9.098;2024-02-16T08:54:12;5.55;;;4.07;;
21107;SDS011;10712;52.944;9.098;2024-02-16T08:56:38;5.25;;;2.92;;
21107;SDS011;10712;52.944;9.098;2024-02-16T08:59:07;3.95;;;1.95;;
21107;SDS011;10712;52.944;9.098;2024-02-16T09:01:36;2.85;;;2.45;;
21107;SDS011;10712;52.944;9.098;2024-02-16T09:04:04;2.78;;;1.65;;
21107;SDS011;10712;52.944;9.098;2024-02-16T09:06:30;4.95;;;2.58;;
21107;SDS011;10712;52.944;9.098;2024-02-16T09:08:57;3.22;;;2.00;;
21107;SDS011;10712;52.944;9.098;2024-02-16T09:11:23;4.18;;;1.95;;
21107;SDS011;10712;52.944;9.098;2024-02-16T09:13:50;2.67;;;2.33;;
21107;SDS011;10712;52.944;9.098;2024-02-16T09:16:16;3.97;;;2.65;;
21107;SDS011;10712;52.944;9.098;2024-02-16T09:18:42;4.22;;;3.03;;
21107;SDS011;10712;52.944;9.098;2024-02-16T09:21:08;3.60;;;2.67;;
21107;SDS011;10712;52.944;9.098;2024-02-16T09:23:34;3.17;;;2.33;;
21107;SDS011;10712;52.944;9.098;2024-02-16T09:26:01;4.13;;;2.40;;
21107;SDS011;10712;52.944;9.098;2024-02-16T09:28:28;4.10;;;2.17;;
21107;SDS011;10712;52.944;9.098;2024-02-16T09:30:54;5.70;;;2.45;;
21107;SDS011;10712;52.944;9.098;2024-02-16T09:33:21;2.00;;;1.67;;
21107;SDS011;10712;52.944;9.098;2024-02-16T09:35:48;4.72;;;2.65;;
21107;SDS011;10712;52.944;9.098;2024-02-16T09:38:14;2.50;;;2.00;;
21107;SDS011;10712;52.944;9.098;2024-02-16T09:40:40;2.70;;;2.08;;
21107;SDS011;10712;52.944;9.098;2024-02-16T09:43:06;2.38;;;2.05;;
21107;SDS011;10712;52.944;9.098;2024-02-16T09:45:32;4.05;;;2.05;;
21107;SDS011;10712;52.944;9.098;2024-02-16T09:47:58;3.45;;;1.58;;
21107;SDS011;10712;52.944;9.098;2024-02-16T09:50:26;3.28;;;1.80;;
21107;SDS011;10712;52.944;9.098;2024-02-16T09:52:55;5.78;;;2.13;;
21107;SDS011;10712;52.944;9.098;2024-02-16T09:55:22;3.58;;;1.88;;
21107;SDS011;10712;52.944;9.098;2024-02-16T09:57:58;2.75;;;1.85;;
21107;SDS011;10712;52.944;9.098;2024-02-16T10:00:25;3.63;;;2.05;;
21107;SDS011;10712;52.944;9.098;2024-02-16T10:02:50;9.18;;;2.10;;
21107;SDS011;10712;52.944;9.098;2024-02-16T10:05:17;2.30;;;1.80;;
21107;SDS011;10712;52.944;9.098;2024-02-16T10:07:46;2.72;;;1.77;;
21107;SDS011;10712;52.944;9.098;2024-02-16T10:10:27;6.32;;;1.58;;
21107;SDS011;10712;52.944;9.098;2024-02-16T10:13:05;3.33;;;2.03;;
21107;SDS011;10712;52.944;9.098;2024-02-16T10:15:33;8.98;;;2.88;;
21107;SDS011;10712;52.944;9.098;2024-02-16T10:18:00;2.80;;;1.88;;
21107;SDS011;10712;52.944;9.098;2024-02-16T10:20:28;3.30;;;2.33;;
21107;SDS011;10712;52.944;9.098;2024-02-16T10:23:05;5.05;;;2.15;;
21107;SDS011;10712;52.944;9.098;2024-02-16T10:25:33;3.05;;;1.77;;
21107;SDS011;10712;52.944;9.098;2024-02-16T10:28:02;5.57;;;2.17;;
21107;SDS011;10712;52.944;9.098;2024-02-16T10:30:34;3.28;;;1.50;;
21107;SDS011;10712;52.944;9.098;2024-02-16T10:33:08;4.10;;;2.20;;
21107;SDS011;10712;52.944;9.098;2024-02-16T10:35:37;3.70;;;2.00;;
21107;SDS011;10712;52.944;9.098;2024-02-16T10:38:04;4.25;;;1.77;;
21107;SDS011;10712;52.944;9.098;2024-02-16T10:40:39;3.70;;;1.92;;
21107;SDS011;10712;52.944;9.098;2024-02-16T10:43:06;6.07;;;1.85;;
21107;SDS011;10712;52.944;9.098;2024-02-16T10:45:35;4.25;;;2.05;;
21107;SDS011;10712;52.944;9.098;2024-02-16T10:48:05;3.28;;;2.05;;
21107;SDS011;10712;52.944;9.098;2024-02-16T10:50:35;3.10;;;1.98;;
21107;SDS011;10712;52.944;9.098;2024-02-16T10:53:10;7.20;;;2.13;;
21107;SDS011;10712;52.944;9.098;2024-02-16T10:55:44;4.53;;;2.00;;
21107;SDS011;10712;52.944;9.098;2024-02-16T10:58:11;4.35;;;2.25;;
21107;SDS011;10712;52.944;9.098;2024-02-16T11:00:58;4.00;;;3.22;;
21107;SDS011;10712;52.944;9.098;2024-02-16T11:03:24;5.53;;;2.55;;
21107;SDS011;10712;52.944;9.098;2024-02-16T11:05:52;3.60;;;2.40;;
21107;SDS011;10712;52.944;9.098;2024-02-16T11:08:20;6.68;;;2.38;;
21107;SDS011;10712;52.944;9.098;2024-02-16T11:10:58;3.65;;;1.98;;
21107;SDS011;10712;52.944;9.098;2024-02-16T11:13:33;3.03;;;2.00;;
21107;SDS011;10712;52.944;9.098;2024-02-16T11:16:02;9.35;;;6.10;;
21107;SDS011;10712;52.944;9.098;2024-02-16T11:18:41;7.22;;;3.40;;
21107;SDS011;10712;52.944;9.098;2024-02-16T11:21:15;3.63;;;2.58;;
21107;SDS011;10712;52.944;9.098;2024-02-16T11:23:41;5.30;;;2.42;;
21107;SDS011;10712;52.944;9.098;2024-02-16T11:26:11;3.63;;;2.45;;
21107;SDS011;10712;52.944;9.098;2024-02-16T11:28:38;5.75;;;3.10;;
21107;SDS011;10712;52.944;9.098;2024-02-16T11:31:07;6.00;;;2.88;;
21107;SDS011;10712;52.944;9.098;2024-02-16T11:33:33;5.10;;;3.03;;
21107;SDS011;10712;52.944;9.098;2024-02-16T11:36:00;6.22;;;2.60;;
21107;SDS011;10712;52.944;9.098;2024-02-16T11:38:31;4.10;;;2.87;;
21107;SDS011;10712;52.944;9.098;2024-02-16T11:41:07;4.32;;;2.38;;
21107;SDS011;10712;52.944;9.098;2024-02-16T11:43:36;5.40;;;2.90;;
21107;SDS011;10712;52.944;9.098;2024-02-16T11:46:11;6.75;;;3.25;;
21107;SDS011;10712;52.944;9.098;2024-02-16T11:48:38;7.40;;;3.13;;
21107;SDS011;10712;52.944;9.098;2024-02-16T11:51:04;5.55;;;3.05;;
21107;SDS011;10712;52.944;9.098;2024-02-16T11:53:31;7.30;;;3.20;;
21107;SDS011;10712;52.944;9.098;2024-02-16T11:55:58;6.80;;;2.72;;
21107;SDS011;10712;52.944;9.098;2024-02-16T11:58:25;8.27;;;3.30;;
21107;SDS011;10712;52.944;9.098;2024-02-16T12:00:52;5.93;;;3.38;;
21107;SDS011;10712;52.944;9.098;2024-02-16T12:03:27;5.28;;;3.30;;
21107;SDS011;10712;52.944;9.098;2024-02-16T12:05:54;4.40;;;2.88;;
21107;SDS011;10712;52.944;9.098;2024-02-16T12:08:21;5.95;;;3.15;;
21107;SDS011;10712;52.944;9.098;2024-02-16T12:10:48;8.65;;;3.03;;
21107;SDS011;10712;52.944;9.098;2024-02-16T12:13:16;4.47;;;3.45;;
21107;SDS011;10712;52.944;9.098;2024-02-16T12:15:48;5.43;;;3.17;;
21107;SDS011;10712;52.944;9.098;2024-02-16T12:18:22;4.50;;;3.00;;
21107;SDS011;10712;52.944;9.098;2024-02-16T12:21:00;6.65;;;3.35;;
21107;SDS011;10712;52.944;9.098;2024-02-16T12:23:28;7.07;;;3.33;;
21107;SDS011;10712;52.944;9.098;2024-02-16T12:25:58;5.63;;;2.92;;
21107;SDS011;10712;52.944;9.098;2024-02-16T12:28:25;6.90;;;3.90;;
21107;SDS011;10712;52.944;9.098;2024-02-16T12:30:56;4.85;;;3.13;;
21107;SDS011;10712;52.944;9.098;2024-02-16T12:33:22;8.30;;;3.50;;
21107;SDS011;10712;52.944;9.098;2024-02-16T12:35:49;5.22;;;2.65;;
21107;SDS011;10712;52.944;9.098;2024-02-16T12:38:15;5.72;;;3.35;;
21107;SDS011;10712;52.944;9.098;2024-02-16T12:40:50;8.02;;;3.60;;
21107;SDS011;10712;52.944;9.098;2024-02-16T12:43:16;6.63;;;3.53;;
21107;SDS011;10712;52.944;9.098;2024-02-16T12:45:44;6.25;;;3.20;;
21107;SDS011;10712;52.944;9.098;2024-02-16T12:48:09;8.45;;;3.65;;
21107;SDS011;10712;52.944;9.098;2024-02-16T12:50:37;8.40;;;3.25;;
21107;SDS011;10712;52.944;9.098;2024-02-16T12:53:04;12.25;;;3.55;;
21107;SDS011;10712;52.944;9.098;2024-02-16T12:55:30;4.38;;;2.85;;
21107;SDS011;10712;52.944;9.098;2024-02-16T12:57:56;8.25;;;4.25;;
21107;SDS011;10712;52.944;9.098;2024-02-16T13:00:22;5.75;;;3.38;;
21107;SDS011;10712;52.944;9.098;2024-02-16T13:02:47;6.57;;;3.58;;
21107;SDS011;10712;52.944;9.098;2024-02-16T13:05:13;9.95;;;3.95;;
21107;SDS011;10712;52.944;9.098;2024-02-16T13:07:39;6.47;;;3.45;;
21107;SDS011;10712;52.944;9.098;2024-02-16T13:10:07;7.82;;;3.47;;
21107;SDS011;10712;52.944;9.098;2024-02-16T13:12:34;6.45;;;3.60;;
21107;SDS011;10712;52.944;9.098;2024-02-16T13:15:02;5.97;;;4.50;;
21107;SDS011;10712;52.944;9.098;2024-02-16T13:17:30;5.97;;;4.05;;
21107;SDS011;10712;52.944;9.098;2024-02-16T13:19:56;8.02;;;3.85;;
21107;SDS011;10712;52.944;9.098;2024-02-16T13:22:31;9.00;;;4.07;;
21107;SDS011;10712;52.944;9.098;2024-02-16T13:24:58;5.38;;;4.78;;
21107;SDS011;10712;52.944;9.098;2024-02-16T13:27:23;10.85;;;6.97;;
21107;SDS011;10712;52.944;9.098;2024-02-16T13:29:49;6.22;;;4.15;;
21107;SDS011;10712;52.944;9.098;2024-02-16T13:32:15;6.82;;;3.45;;
21107;SDS011;10712;52.944;9.098;2024-02-16T13:34:41;7.95;;;4.03;;
21107;SDS011;10712;52.944;9.098;2024-02-16T13:37:06;10.30;;;4.88;;
21107;SDS011;10712;52.944;9.098;2024-02-16T13:39:32;7.30;;;4.05;;
21107;SDS011;10712;52.944;9.098;2024-02-16T13:41:58;6.90;;;3.95;;
21107;SDS011;10712;52.944;9.098;2024-02-16T13:44:24;6.43;;;3.83;;
21107;SDS011;10712;52.944;9.098;2024-02-16T13:46:50;7.95;;;4.05;;
21107;SDS011;10712;52.944;9.098;2024-02-16T13:49:16;9.98;;;5.82;;
21107;SDS011;10712;52.944;9.098;2024-02-16T13:51:41;11.52;;;4.72;;
21107;SDS011;10712;52.944;9.098;2024-02-16T13:54:07;10.52;;;4.25;;
21107;SDS011;10712;52.944;9.098;2024-02-16T13:56:33;8.38;;;4.20;;
21107;SDS011;10712;52.944;9.098;2024-02-16T13:59:04;10.55;;;4.35;;
21107;SDS011;10712;52.944;9.098;2024-02-16T14:01:32;8.32;;;4.55;;
21107;SDS011;10712;52.944;9.098;2024-02-16T14:04:02;6.82;;;3.75;;
21107;SDS011;10712;52.944;9.098;2024-02-16T14:06:28;6.45;;;3.67;;
21107;SDS011;10712;52.944;9.098;2024-02-16T14:08:56;8.98;;;5.90;;
21107;SDS011;10712;52.944;9.098;2024-02-16T14:11:22;10.13;;;3.90;;
21107;SDS011;10712;52.944;9.098;2024-02-16T14:13:48;7.50;;;4.10;;
21107;SDS011;10712;52.944;9.098;2024-02-16T14:16:14;8.48;;;4.32;;
21107;SDS011;10712;52.944;9.098;2024-02-16T14:18:40;7.95;;;4.85;;
21107;SDS011;10712;52.944;9.098;2024-02-16T14:21:06;9.77;;;4.22;;
21107;SDS011;10712;52.944;9.098;2024-02-16T14:23:32;13.23;;;5.20;;
21107;SDS011;10712;52.944;9.098;2024-02-16T14:25:58;8.30;;;5.32;;
21107;SDS011;10712;52.944;9.098;2024-02-16T14:28:24;8.90;;;5.47;;
21107;SDS011;10712;52.944;9.098;2024-02-16T14:30:50;9.80;;;5.30;;
21107;SDS011;10712;52.944;9.098;2024-02-16T14:33:16;8.02;;;5.38;;
21107;SDS011;10712;52.944;9.098;2024-02-16T14:35:42;7.55;;;5.45;;
21107;SDS011;10712;52.944;9.098;2024-02-16T14:38:08;10.73;;;6.43;;
21107;SDS011;10712;52.944;9.098;2024-02-16T14:40:34;8.32;;;6.32;;
21107;SDS011;10712;52.944;9.098;2024-02-16T14:43:01;8.85;;;6.18;;
21107;SDS011;10712;52.944;9.098;2024-02-16T14:45:27;9.57;;;5.93;;
21107;SDS011;10712;52.944;9.098;2024-02-16T14:47:53;9.40;;;5.88;;